Time;durP1;ratioP1;P1;durP2;ratioP2;P2;SDS_P1;SDS_P2;PMS_P1;PMS_P2;Temp;Humidity;BMP_temperature;BMP_pressure;BME280_temperature;BME280_humidity;BME280_pressure;Samples;Min_cycle;Max_cycle;Signal;HPM_P1;HPM_P2
2022/05/09 00:01:14;;;;;;;4.55;1.88;;;15.80;48.80;;;;;;5039067;28;20507;-44
2022/05/09 00:03:42;;;;;;;4.45;1.70;;;15.70;48.80;;;;;;5038087;28;20060;-44
2022/05/09 00:06:11;;;;;;;9.30;2.00;;;15.70;48.80;;;;;;5040485;28;20072;-44
2022/05/09 00:08:39;;;;;;;4.57;2.25;;;15.70;48.90;;;;;;5041202;28;20060;-45
2022/05/09 00:11:07;;;;;;;4.32;1.65;;;15.60;49.00;;;;;;5042027;28;20057;-46
2022/05/09 00:13:35;;;;;;;3.22;1.70;;;15.60;49.10;;;;;;5036326;28;20080;-45
2022/05/09 00:16:03;;;;;;;5.38;1.90;;;15.50;49.20;;;;;;5039585;28;20481;-44
2022/05/09 00:18:30;;;;;;;3.78;1.65;;;15.50;49.30;;;;;;5039514;28;20400;-45
2022/05/09 00:20:58;;;;;;;8.98;2.85;;;15.50;49.30;;;;;;5038626;28;20059;-46
2022/05/09 00:23:26;;;;;;;6.13;2.53;;;15.40;49.20;;;;;;5038412;28;20408;-48
2022/05/09 00:25:54;;;;;;;10.35;5.13;;;15.40;49.40;;;;;;5039947;28;20403;-44
2022/05/09 00:28:22;;;;;;;7.95;4.13;;;15.40;49.40;;;;;;5038264;28;20053;-46
2022/05/09 00:30:49;;;;;;;9.27;3.20;;;15.40;49.60;;;;;;5039093;28;20056;-44
2022/05/09 00:33:16;;;;;;;5.75;2.47;;;15.30;49.60;;;;;;5036708;28;20049;-44
2022/05/09 00:35:44;;;;;;;4.53;2.47;;;15.30;49.80;;;;;;5041388;28;20072;-44
2022/05/09 00:38:12;;;;;;;4.25;1.92;;;15.30;50.00;;;;;;5040721;28;20057;-44
2022/05/09 00:41:28;;;;;;;4.55;2.10;;;15.20;49.90;;;;;;5038839;28;20049;-48
2022/05/09 00:43:32;;;;;;;12.15;3.22;;;15.20;49.90;;;;;;5037566;28;20064;-44
2022/05/09 00:45:59;;;;;;;4.63;2.05;;;15.20;49.90;;;;;;5038292;28;20124;-44
2022/05/09 00:48:27;;;;;;;4.97;2.25;;;15.10;49.90;;;;;;5039416;28;20053;-44
2022/05/09 00:50:56;;;;;;;7.38;2.42;;;15.10;49.90;;;;;;5039562;28;20052;-46
2022/05/09 00:53:24;;;;;;;5.18;2.17;;;15.10;50.00;;;;;;5036943;28;20053;-44
2022/05/09 00:55:55;;;;;;;4.05;2.17;;;15.10;50.10;;;;;;5040527;28;20053;-46
2022/05/09 00:58:27;;;;;;;5.20;1.98;;;15.00;50.20;;;;;;5038802;28;20061;-44
2022/05/09 01:00:56;;;;;;;8.55;2.70;;;15.00;50.30;;;;;;5039226;28;20052;-44
2022/05/09 01:03:30;;;;;;;3.97;2.15;;;15.00;50.30;;;;;;5036159;28;20560;-47
2022/05/09 01:05:58;;;;;;;5.38;1.95;;;14.90;50.50;;;;;;5043869;28;20421;-45
2022/05/09 01:08:26;;;;;;;5.65;2.20;;;14.90;50.50;;;;;;5043540;28;20064;-46
2022/05/09 01:10:56;;;;;;;4.65;1.92;;;14.90;50.50;;;;;;5044006;28;20056;-44
2022/05/09 01:13:26;;;;;;;4.75;2.30;;;14.90;50.70;;;;;;5039914;28;20045;-45
2022/05/09 01:15:55;;;;;;;4.07;1.90;;;14.90;50.90;;;;;;5043174;28;20052;-44
2022/05/09 01:18:23;;;;;;;6.60;2.30;;;14.80;50.80;;;;;;5042942;28;20064;-45
2022/05/09 01:20:50;;;;;;;3.33;1.65;;;14.80;50.90;;;;;;5044696;28;20068;-48
2022/05/09 01:23:19;;;;;;;3.90;2.10;;;14.80;50.90;;;;;;5041812;28;20053;-46
2022/05/09 01:25:47;;;;;;;5.72;2.13;;;14.80;51.00;;;;;;5043708;28;20488;-45
2022/05/09 01:28:14;;;;;;;7.07;2.28;;;14.70;51.00;;;;;;5043403;28;20057;-44
2022/05/09 01:30:49;;;;;;;4.22;2.28;;;14.70;51.00;;;;;;5042943;28;20053;-44
2022/05/09 01:33:20;;;;;;;5.68;2.22;;;14.70;51.00;;;;;;5037730;28;20060;-46
2022/05/09 01:35:53;;;;;;;7.57;2.42;;;14.70;51.00;;;;;;5044529;28;20057;-45
2022/05/09 01:38:27;;;;;;;5.63;1.88;;;14.60;51.00;;;;;;5036886;28;20067;-45
2022/05/09 01:40:55;;;;;;;4.38;1.63;;;14.60;51.10;;;;;;5043955;28;20060;-45
2022/05/09 01:43:34;;;;;;;4.78;2.00;;;14.60;51.10;;;;;;5040341;28;20056;-46
2022/05/09 01:46:02;;;;;;;3.95;2.10;;;14.60;51.50;;;;;;5041450;28;20076;-46
2022/05/09 01:51:16;;;;;;;5.40;2.13;;;14.50;51.30;;;;;;5041210;28;20072;-44
2022/05/09 01:53:49;;;;;;;5.15;2.22;;;14.50;51.30;;;;;;5040326;28;20057;-46
2022/05/09 01:56:17;;;;;;;6.20;1.85;;;14.50;51.30;;;;;;5042046;28;20052;-44
2022/05/09 01:58:44;;;;;;;3.75;1.77;;;14.50;51.20;;;;;;5042931;28;20057;-44
2022/05/09 02:01:12;;;;;;;3.22;1.83;;;14.50;51.40;;;;;;5040573;28;20056;-44
2022/05/09 02:03:40;;;;;;;5.47;1.70;;;14.40;51.40;;;;;;5039908;28;20064;-44
2022/05/09 02:06:08;;;;;;;3.42;2.20;;;14.40;51.50;;;;;;5041727;28;20048;-47
2022/05/09 02:08:37;;;;;;;2.88;1.60;;;14.40;51.60;;;;;;5044143;28;20053;-44
2022/05/09 02:11:06;;;;;;;4.45;1.73;;;14.30;51.60;;;;;;5044242;28;20068;-45
2022/05/09 02:13:34;;;;;;;5.72;1.98;;;14.30;51.60;;;;;;5038824;28;20416;-44
2022/05/09 02:16:01;;;;;;;3.17;1.70;;;14.30;51.60;;;;;;5042156;28;20065;-45
2022/05/09 02:18:29;;;;;;;8.20;2.00;;;14.30;51.70;;;;;;5042832;28;20052;-44
2022/05/09 02:20:57;;;;;;;5.15;2.05;;;14.30;51.80;;;;;;5043133;28;20114;-45
2022/05/09 02:23:24;;;;;;;5.30;1.60;;;14.20;51.80;;;;;;5038414;28;20424;-45
2022/05/09 02:25:52;;;;;;;3.78;1.60;;;14.20;51.80;;;;;;5040897;28;20056;-45
2022/05/09 02:28:21;;;;;;;5.15;2.00;;;14.20;51.90;;;;;;5043148;28;20053;-47
2022/05/09 02:30:48;;;;;;;4.70;1.85;;;14.10;51.90;;;;;;5041832;28;20052;-44
2022/05/09 02:33:16;;;;;;;4.43;1.58;;;14.10;51.80;;;;;;5039483;28;20052;-46
2022/05/09 02:35:44;;;;;;;4.13;1.70;;;14.10;51.90;;;;;;5042378;28;20476;-45
2022/05/09 02:38:12;;;;;;;4.22;1.77;;;14.10;51.90;;;;;;5042849;28;20743;-44
2022/05/09 02:40:41;;;;;;;4.55;2.08;;;14.10;52.00;;;;;;5042125;28;20048;-44
2022/05/09 02:43:08;;;;;;;7.00;1.80;;;14.00;51.90;;;;;;5038081;28;20416;-47
2022/05/09 02:45:38;;;;;;;3.30;1.85;;;14.00;52.00;;;;;;5040347;28;20053;-44
2022/05/09 02:48:07;;;;;;;6.40;1.77;;;14.00;52.10;;;;;;5042139;28;20061;-46
2022/05/09 02:50:34;;;;;;;7.32;2.47;;;14.00;52.10;;;;;;5042139;28;20049;-44
2022/05/09 02:53:02;;;;;;;3.97;2.00;;;14.00;52.20;;;;;;5038834;28;20079;-44
2022/05/09 02:55:31;;;;;;;2.05;1.52;;;13.90;52.20;;;;;;5040945;28;20049;-47
2022/05/09 02:58:00;;;;;;;6.47;1.85;;;13.90;52.30;;;;;;5043023;28;20048;-45
2022/05/09 03:00:30;;;;;;;3.50;1.80;;;13.90;52.40;;;;;;5040568;28;20049;-44
2022/05/09 03:05:46;;;;;;;4.05;1.65;;;13.90;52.60;;;;;;5047245;28;20055;-44
2022/05/09 03:08:15;;;;;;;5.78;1.98;;;13.90;52.60;;;;;;5042958;28;20064;-45
2022/05/09 03:10:43;;;;;;;6.05;1.98;;;13.80;52.60;;;;;;5041853;28;20060;-44
2022/05/09 03:13:12;;;;;;;4.45;1.40;;;13.80;52.50;;;;;;5038687;28;20072;-44
2022/05/09 03:15:43;;;;;;;4.78;1.75;;;13.80;52.60;;;;;;5039734;28;20056;-45
2022/05/09 03:18:13;;;;;;;5.45;1.92;;;13.80;52.80;;;;;;5041198;28;20064;-45
2022/05/09 03:20:41;;;;;;;3.25;1.48;;;13.80;52.90;;;;;;5041888;28;20049;-44
2022/05/09 03:23:11;;;;;;;3.35;1.80;;;13.80;52.90;;;;;;5037536;28;20067;-45
2022/05/09 03:25:39;;;;;;;5.20;1.70;;;13.80;53.00;;;;;;5040583;28;20415;-44
2022/05/09 03:28:08;;;;;;;3.72;1.80;;;13.80;53.00;;;;;;5042363;28;20056;-49
2022/05/09 03:30:37;;;;;;;3.03;1.65;;;13.80;52.90;;;;;;5038834;28;20432;-45
2022/05/09 03:33:06;;;;;;;5.40;1.88;;;13.80;53.00;;;;;;5038102;28;20052;-48
2022/05/09 03:35:35;;;;;;;6.00;1.95;;;13.70;52.90;;;;;;5041874;28;20064;-44
2022/05/09 03:38:03;;;;;;;4.65;2.10;;;13.70;53.00;;;;;;5042343;28;20497;-44
2022/05/09 03:40:30;;;;;;;4.85;1.70;;;13.70;53.00;;;;;;5040200;28;20061;-44
2022/05/09 03:42:59;;;;;;;6.47;2.03;;;13.70;53.00;;;;;;5037552;28;20583;-46
2022/05/09 03:45:27;;;;;;;2.58;1.38;;;13.70;53.10;;;;;;5036716;28;20052;-45
2022/05/09 03:47:55;;;;;;;6.07;2.03;;;13.60;53.10;;;;;;5038058;28;20416;-45
2022/05/09 03:50:23;;;;;;;4.05;1.70;;;13.60;53.70;;;;;;5041762;28;20076;-46
2022/05/09 03:52:52;;;;;;;4.80;1.92;;;13.60;53.20;;;;;;5038942;28;20056;-44
2022/05/09 03:55:20;;;;;;;3.08;1.50;;;13.60;53.30;;;;;;5040578;28;20045;-48
2022/05/09 03:57:50;;;;;;;4.47;2.22;;;13.60;53.30;;;;;;5040202;28;20063;-44
2022/05/09 04:00:20;;;;;;;4.15;1.73;;;13.60;53.40;;;;;;5037365;28;20068;-45
2022/05/09 04:02:48;;;;;;;3.63;2.00;;;13.60;53.40;;;;;;5032926;28;20502;-44
2022/05/09 04:05:17;;;;;;;2.95;1.70;;;13.60;53.40;;;;;;5037947;28;20123;-45
2022/05/09 04:07:46;;;;;;;4.72;2.00;;;13.50;53.40;;;;;;5039403;28;20053;-44
2022/05/09 04:10:16;;;;;;;8.88;2.65;;;13.50;53.30;;;;;;5041271;28;20056;-45
2022/05/09 04:12:43;;;;;;;4.75;1.95;;;13.50;53.30;;;;;;5041427;28;20053;-44
2022/05/09 04:17:56;;;;;;;5.25;1.70;;;13.50;53.40;;;;;;5033655;28;20055;-45
2022/05/09 04:20:25;;;;;;;5.35;2.00;;;13.50;53.50;;;;;;5036218;28;20679;-44
2022/05/09 04:22:54;;;;;;;5.38;2.42;;;13.50;53.60;;;;;;5036307;28;20052;-47
2022/05/09 04:25:23;;;;;;;4.90;2.00;;;13.40;53.60;;;;;;5037023;28;21518;-45
2022/05/09 04:27:51;;;;;;;4.38;1.75;;;13.40;53.60;;;;;;5036374;28;20401;-44
2022/05/09 04:30:19;;;;;;;6.10;2.10;;;13.40;53.60;;;;;;5038082;28;20075;-44
2022/05/09 04:32:46;;;;;;;7.22;1.90;;;13.40;53.60;;;;;;5035523;28;20053;-44
2022/05/09 04:35:17;;;;;;;3.47;1.98;;;13.40;53.60;;;;;;5036814;28;20064;-44
2022/05/09 04:37:47;;;;;;;4.18;1.92;;;13.40;53.70;;;;;;5039638;28;20420;-44
2022/05/09 04:40:16;;;;;;;4.03;2.13;;;13.40;53.70;;;;;;5038163;28;20048;-48
2022/05/09 04:42:45;;;;;;;4.50;1.75;;;13.40;53.80;;;;;;5039047;28;20061;-45
2022/05/09 04:45:13;;;;;;;3.53;1.70;;;13.40;53.80;;;;;;5040317;28;20049;-47
2022/05/09 04:47:42;;;;;;;4.53;1.95;;;13.40;53.80;;;;;;5038537;28;20063;-44
2022/05/09 04:50:12;;;;;;;3.67;1.80;;;13.40;53.80;;;;;;5037647;28;20519;-46
2022/05/09 04:52:39;;;;;;;7.38;2.05;;;13.40;53.90;;;;;;5038051;28;20072;-44
2022/05/09 04:55:08;;;;;;;7.50;2.05;;;13.40;53.90;;;;;;5040447;28;20061;-44
2022/05/09 04:57:35;;;;;;;3.97;1.67;;;13.40;53.90;;;;;;5040441;28;20076;-44
2022/05/09 05:00:06;;;;;;;5.22;2.15;;;13.40;53.90;;;;;;5039252;28;20049;-45
2022/05/09 05:02:33;;;;;;;3.72;1.73;;;13.40;53.90;;;;;;5039213;28;20064;-44
2022/05/09 05:05:02;;;;;;;4.90;2.00;;;13.50;54.00;;;;;;5040130;28;20060;-45
2022/05/09 05:07:30;;;;;;;5.55;2.15;;;13.50;54.00;;;;;;5039904;28;20058;-45
2022/05/09 05:09:58;;;;;;;4.43;1.75;;;13.50;54.00;;;;;;5040481;28;20068;-44
2022/05/09 05:12:25;;;;;;;5.53;2.35;;;13.50;54.00;;;;;;5039579;28;20057;-50
2022/05/09 05:14:52;;;;;;;3.38;2.05;;;13.50;54.10;;;;;;5038703;28;20406;-47
2022/05/09 05:17:21;;;;;;;5.05;1.77;;;13.60;54.10;;;;;;5036626;28;20049;-46
2022/05/09 05:19:49;;;;;;;4.15;1.65;;;13.60;54.20;;;;;;5038088;28;20064;-45
2022/05/09 05:22:17;;;;;;;5.03;1.85;;;13.60;54.20;;;;;;5035913;28;20059;-44
2022/05/09 05:24:46;;;;;;;2.60;1.38;;;13.70;54.20;;;;;;5040790;28;20057;-44
2022/05/09 05:27:14;;;;;;;4.45;1.73;;;13.70;54.30;;;;;;5038229;28;20049;-46
2022/05/09 05:29:42;;;;;;;3.65;2.13;;;13.80;54.40;;;;;;5039516;28;20060;-44
2022/05/09 05:32:16;;;;;;;2.75;2.00;;;13.80;54.40;;;;;;5035161;28;20053;-44
2022/05/09 05:34:45;;;;;;;5.88;2.30;;;13.80;54.80;;;;;;5037358;28;20053;-44
2022/05/09 05:37:12;;;;;;;3.58;2.17;;;13.90;54.80;;;;;;5039638;28;20060;-45
2022/05/09 05:39:41;;;;;;;3.83;1.92;;;13.90;54.80;;;;;;5040033;28;20053;-47
2022/05/09 05:42:09;;;;;;;4.82;1.98;;;14.00;54.90;;;;;;5036173;28;20057;-44
2022/05/09 05:44:38;;;;;;;4.10;1.60;;;14.00;54.90;;;;;;5036403;28;20064;-45
2022/05/09 05:47:07;;;;;;;5.60;2.05;;;14.10;55.00;;;;;;5036514;28;20124;-44
2022/05/09 05:49:35;;;;;;;3.13;2.05;;;14.20;55.20;;;;;;5036993;28;20501;-45
2022/05/09 05:52:05;;;;;;;4.47;1.95;;;14.20;55.10;;;;;;5035569;28;20056;-44
2022/05/09 05:54:34;;;;;;;6.82;2.30;;;14.30;55.20;;;;;;5044100;28;20049;-44
2022/05/09 05:57:02;;;;;;;4.43;1.85;;;14.30;55.20;;;;;;5041811;28;20049;-45
2022/05/09 05:59:30;;;;;;;4.75;2.15;;;14.40;55.20;;;;;;5044280;28;20064;-47
2022/05/09 06:01:57;;;;;;;5.50;2.03;;;14.50;55.20;;;;;;5038171;28;20059;-44
2022/05/09 06:04:25;;;;;;;4.75;2.47;;;14.60;55.20;;;;;;5040015;28;20061;-44
2022/05/09 06:06:52;;;;;;;6.47;1.90;;;14.60;55.30;;;;;;5039735;28;20049;-44
2022/05/09 06:09:21;;;;;;;5.85;2.70;;;14.70;55.20;;;;;;5043141;28;20059;-46
2022/05/09 06:11:49;;;;;;;6.25;2.30;;;14.80;55.30;;;;;;5040619;28;20057;-45
2022/05/09 06:14:16;;;;;;;3.97;1.83;;;14.80;55.30;;;;;;5042007;28;20053;-44
2022/05/09 06:16:45;;;;;;;4.45;2.25;;;14.90;55.30;;;;;;5039405;28;20057;-46
2022/05/09 06:19:12;;;;;;;6.30;2.08;;;15.00;55.30;;;;;;5037795;28;20053;-45
2022/05/09 06:21:39;;;;;;;7.00;3.30;;;15.10;55.50;;;;;;5034518;28;20068;-44
2022/05/09 06:24:08;;;;;;;4.65;2.35;;;15.10;55.50;;;;;;5041548;28;20052;-44
2022/05/09 06:26:37;;;;;;;4.38;2.25;;;15.20;55.70;;;;;;5040766;28;20056;-45
2022/05/09 06:29:06;;;;;;;4.03;2.40;;;15.30;55.60;;;;;;5040291;28;20076;-49
2022/05/09 06:31:36;;;;;;;4.05;2.75;;;15.30;55.60;;;;;;5039180;28;21673;-47
2022/05/09 06:34:04;;;;;;;5.47;2.50;;;15.40;55.60;;;;;;5039916;28;20106;-45
2022/05/09 06:36:34;;;;;;;4.90;2.05;;;15.50;55.60;;;;;;5039484;28;20045;-44
2022/05/09 06:39:02;;;;;;;8.73;2.53;;;15.60;55.60;;;;;;5042071;28;20064;-46
2022/05/09 06:41:30;;;;;;;7.00;2.83;;;15.60;55.60;;;;;;5040353;28;20052;-44
2022/05/09 06:43:59;;;;;;;13.07;2.60;;;15.70;55.50;;;;;;5041402;28;20397;-44
2022/05/09 06:46:27;;;;;;;5.75;2.38;;;15.80;55.30;;;;;;5041700;28;20055;-44
2022/05/09 06:48:54;;;;;;;11.05;2.78;;;15.80;55.10;;;;;;5041570;28;20057;-45
2022/05/09 06:51:22;;;;;;;4.47;2.17;;;15.90;55.00;;;;;;5041362;28;20068;-45
2022/05/09 06:53:51;;;;;;;6.75;2.47;;;16.00;54.90;;;;;;5038935;28;20061;-44
2022/05/09 06:56:18;;;;;;;4.88;2.08;;;16.00;54.80;;;;;;5043291;28;20064;-44
2022/05/09 06:58:46;;;;;;;4.70;2.25;;;16.10;54.80;;;;;;5036666;28;20060;-47
2022/05/09 07:01:17;;;;;;;4.20;2.47;;;16.20;54.60;;;;;;5039099;28;20052;-44
2022/05/09 07:03:45;;;;;;;5.53;2.50;;;16.20;54.40;;;;;;5039776;28;20045;-45
2022/05/09 07:06:12;;;;;;;8.25;3.20;;;16.30;54.50;;;;;;5042598;28;20048;-45
2022/05/09 07:08:42;;;;;;;7.50;3.40;;;16.40;54.60;;;;;;5038038;28;20057;-44
2022/05/09 07:11:11;;;;;;;15.52;5.60;;;16.40;54.40;;;;;;5038874;28;20056;-44
2022/05/09 07:13:39;;;;;;;8.80;4.55;;;16.50;54.20;;;;;;5040545;28;20061;-45
2022/05/09 07:16:08;;;;;;;13.18;5.82;;;16.60;54.20;;;;;;5039787;28;20053;-44
2022/05/09 07:18:38;;;;;;;12.25;5.68;;;16.70;54.10;;;;;;5038692;28;20056;-44
2022/05/09 07:21:06;;;;;;;6.82;3.63;;;16.70;54.30;;;;;;5041845;28;20059;-44
2022/05/09 07:23:34;;;;;;;6.68;2.97;;;16.70;54.30;;;;;;5038570;28;20049;-46
2022/05/09 07:26:04;;;;;;;7.53;3.80;;;16.80;54.20;;;;;;5039640;28;20049;-45
2022/05/09 07:28:32;;;;;;;7.28;3.75;;;16.90;54.40;;;;;;5041060;28;20409;-44
2022/05/09 07:31:01;;;;;;;5.50;3.25;;;17.00;54.20;;;;;;5040768;28;20068;-44
2022/05/09 07:33:29;;;;;;;9.70;3.92;;;17.00;54.10;;;;;;5037216;28;20067;-44
2022/05/09 07:35:58;;;;;;;8.20;3.67;;;17.10;54.30;;;;;;5039648;28;20059;-45
2022/05/09 07:38:26;;;;;;;4.18;3.08;;;17.10;54.30;;;;;;5038597;28;20044;-44
2022/05/09 07:40:54;;;;;;;9.88;4.05;;;17.20;54.30;;;;;;5041621;28;20056;-44
2022/05/09 07:43:24;;;;;;;7.75;3.47;;;17.30;54.30;;;;;;5036630;28;20057;-44
2022/05/09 07:45:54;;;;;;;6.38;3.30;;;17.40;54.40;;;;;;5040171;28;20542;-44
2022/05/09 07:48:22;;;;;;;7.05;3.72;;;17.50;54.20;;;;;;5039747;28;20420;-44
2022/05/09 07:50:50;;;;;;;17.70;4.28;;;17.50;54.00;;;;;;5039478;28;20147;-47
2022/05/09 07:53:21;;;;;;;9.45;3.70;;;17.60;53.90;;;;;;5039930;28;20492;-44
2022/05/09 07:55:50;;;;;;;9.48;4.10;;;17.70;53.70;;;;;;5040008;28;20064;-44
2022/05/09 07:58:17;;;;;;;7.10;3.55;;;17.70;53.70;;;;;;5036612;28;20049;-46
2022/05/09 08:00:45;;;;;;;11.40;4.30;;;17.80;53.80;;;;;;5040743;28;20053;-44
2022/05/09 08:03:16;;;;;;;9.05;3.92;;;17.90;53.70;;;;;;5037530;28;20587;-44
2022/05/09 08:05:43;;;;;;;10.90;4.13;;;18.00;53.60;;;;;;5041044;28;20056;-44
2022/05/09 08:08:12;;;;;;;7.47;3.55;;;18.00;53.40;;;;;;5041630;28;20045;-44
2022/05/09 08:10:42;;;;;;;10.52;4.20;;;18.10;53.50;;;;;;5039056;28;20084;-44
2022/05/09 08:13:10;;;;;;;6.10;3.72;;;18.20;53.50;;;;;;5037502;28;20076;-44
2022/05/09 08:15:38;;;;;;;7.50;4.00;;;18.20;53.80;;;;;;5040045;28;20595;-44
2022/05/09 08:18:05;;;;;;;8.65;4.13;;;18.30;53.10;;;;;;5039708;28;20053;-44
2022/05/09 08:20:35;;;;;;;9.90;4.05;;;18.40;53.00;;;;;;5041565;28;20519;-44
2022/05/09 08:23:05;;;;;;;6.63;3.75;;;18.40;53.10;;;;;;5037396;28;20064;-44
2022/05/09 08:25:34;;;;;;;7.38;3.65;;;18.50;53.00;;;;;;5039490;28;20080;-48
2022/05/09 08:28:03;;;;;;;6.15;3.72;;;18.50;53.10;;;;;;5041142;28;20102;-46
2022/05/09 08:30:32;;;;;;;17.35;3.33;;;18.60;53.10;;;;;;5040684;28;20496;-44
2022/05/09 08:33:00;;;;;;;9.40;3.95;;;18.70;53.30;;;;;;5035486;28;20053;-46
2022/05/09 08:35:28;;;;;;;6.68;3.50;;;18.70;53.30;;;;;;5040211;28;20386;-44
2022/05/09 08:37:56;;;;;;;7.32;3.88;;;18.80;53.40;;;;;;5039969;28;20056;-44
2022/05/09 08:40:33;;;;;;;7.82;3.58;;;18.90;53.40;;;;;;5040485;28;20135;-45
2022/05/09 08:43:12;;;;;;;6.40;3.50;;;18.90;53.30;;;;;;5036690;28;21652;-46
2022/05/09 08:45:45;;;;;;;8.35;3.70;;;19.00;53.20;;;;;;5041544;28;20256;-44
2022/05/09 08:48:27;;;;;;;8.13;3.53;;;19.10;53.20;;;;;;5039099;28;20049;-44
2022/05/09 08:51:05;;;;;;;7.47;3.70;;;19.20;52.80;;;;;;5041304;28;20053;-44
2022/05/09 08:53:36;;;;;;;7.95;3.30;;;19.30;52.70;;;;;;5035816;28;20436;-44
2022/05/09 08:56:04;;;;;;;7.75;3.63;;;19.40;53.10;;;;;;5040925;28;20056;-47
2022/05/09 08:58:40;;;;;;;8.02;4.18;;;19.50;53.40;;;;;;5034501;28;20052;-44
2022/05/09 09:01:13;;;;;;;5.55;3.70;;;19.50;53.00;;;;;;5041452;28;20064;-45
2022/05/09 09:03:45;;;;;;;7.07;4.10;;;19.60;52.80;;;;;;5035349;28;20488;-44
2022/05/09 09:06:29;;;;;;;7.85;3.30;;;19.70;52.80;;;;;;5041263;28;20056;-45
2022/05/09 09:09:06;;;;;;;8.57;3.53;;;19.90;53.30;;;;;;5040268;28;20056;-45
2022/05/09 09:11:47;;;;;;;11.02;3.95;;;19.90;52.60;;;;;;5039442;28;20064;-44
2022/05/09 09:14:25;;;;;;;8.52;3.88;;;20.00;52.40;;;;;;5040673;28;20056;-45
2022/05/09 09:17:06;;;;;;;6.55;3.30;;;20.10;52.20;;;;;;5039195;28;20045;-44
2022/05/09 09:19:50;;;;;;;7.13;3.58;;;20.20;52.20;;;;;;5039816;28;20064;-46
2022/05/09 09:22:31;;;;;;;9.63;3.85;;;20.30;52.10;;;;;;5036474;28;20065;-46
2022/05/09 09:25:21;;;;;;;8.88;4.43;;;20.40;52.00;;;;;;5040426;28;20057;-46
2022/05/09 09:27:53;;;;;;;12.48;4.97;;;20.50;51.30;;;;;;5043438;28;20048;-45
2022/05/09 09:30:24;;;;;;;7.90;3.97;;;20.50;51.80;;;;;;5041012;28;20049;-44
2022/05/09 09:32:56;;;;;;;7.00;3.67;;;20.60;52.50;;;;;;5038861;28;20060;-46
2022/05/09 09:35:32;;;;;;;8.45;3.72;;;20.70;51.90;;;;;;5042422;28;20051;-44
2022/05/09 09:38:06;;;;;;;8.00;3.55;;;20.80;52.00;;;;;;5042561;28;20060;-46
2022/05/09 09:40:34;;;;;;;6.80;4.05;;;20.90;52.20;;;;;;5043450;28;20056;-44
2022/05/09 09:43:01;;;;;;;11.85;3.83;;;20.90;51.80;;;;;;5037971;28;20083;-46
2022/05/09 09:45:35;;;;;;;4.72;3.38;;;21.00;51.50;;;;;;5041218;28;20057;-46
2022/05/09 09:48:09;;;;;;;7.72;3.75;;;21.10;51.40;;;;;;5040898;28;20065;-44
2022/05/09 09:50:36;;;;;;;9.55;3.92;;;21.20;51.50;;;;;;5040978;28;20427;-44
2022/05/09 09:53:07;;;;;;;9.00;3.97;;;21.20;51.50;;;;;;5038684;28;20377;-45
2022/05/09 09:55:36;;;;;;;7.55;4.45;;;21.30;51.50;;;;;;5044164;28;20049;-45
2022/05/09 09:58:20;;;;;;;8.07;3.55;;;21.40;50.80;;;;;;5039589;28;20049;-45
2022/05/09 10:01:04;;;;;;;8.55;4.05;;;21.40;50.40;;;;;;5040022;28;20505;-44
2022/05/09 10:03:33;;;;;;;7.68;4.20;;;21.50;50.50;;;;;;5037725;28;20060;-44
2022/05/09 10:06:01;;;;;;;6.38;4.68;;;21.60;50.40;;;;;;5043022;28;20057;-46
2022/05/09 10:08:32;;;;;;;6.47;4.05;;;21.60;49.90;;;;;;5041879;28;20053;-46
2022/05/09 10:11:09;;;;;;;8.35;4.40;;;21.70;49.90;;;;;;5041695;28;20492;-45
2022/05/09 10:13:39;;;;;;;12.90;4.05;;;21.70;49.50;;;;;;5038181;28;20060;-45
2022/05/09 10:16:12;;;;;;;8.25;4.60;;;21.70;49.50;;;;;;5040547;28;20392;-44
2022/05/09 10:18:42;;;;;;;5.35;4.13;;;21.80;49.30;;;;;;5041816;28;20048;-44
2022/05/09 10:24:47;;;;;;;6.75;4.80;;;21.90;49.40;;;;;;5041903;28;20049;-44
2022/05/09 10:26:58;;;;;;;5.22;4.15;;;22.00;48.30;;;;;;5047378;28;20920;-44
2022/05/09 10:29:32;;;;;;;5.32;3.63;;;22.00;48.30;;;;;;5039915;28;20052;-47
2022/05/09 10:32:04;;;;;;;;;;;22.00;48.20;;;;;;5038582;28;20477;-47
2022/05/09 10:34:41;;;;;;;5.55;3.70;;;22.10;48.60;;;;;;5038936;28;20331;-44
2022/05/09 10:37:16;;;;;;;7.47;4.22;;;22.10;48.60;;;;;;5038629;28;20442;-45
2022/05/09 10:39:49;;;;;;;5.82;3.80;;;22.20;48.50;;;;;;5042844;28;20053;-45
2022/05/09 10:42:23;;;;;;;7.85;4.07;;;22.30;48.50;;;;;;5038921;28;20092;-44
2022/05/09 10:44:55;;;;;;;7.55;3.80;;;22.30;47.80;;;;;;5042501;28;20810;-45
2022/05/09 10:47:35;;;;;;;7.43;3.72;;;22.40;47.60;;;;;;5038927;28;20060;-44
2022/05/09 10:50:10;;;;;;;9.20;3.72;;;22.40;48.00;;;;;;5038347;28;20053;-44
2022/05/09 10:52:44;;;;;;;7.32;3.80;;;22.50;47.50;;;;;;5037729;28;20049;-48
2022/05/09 10:55:18;;;;;;;7.18;4.20;;;22.60;47.10;;;;;;5037122;28;20053;-44
2022/05/09 10:57:51;;;;;;;6.77;3.10;;;22.70;46.80;;;;;;5040825;28;20909;-44
2022/05/09 11:00:22;;;;;;;6.38;3.40;;;22.80;46.80;;;;;;5037233;28;20085;-45
2022/05/09 11:03:01;;;;;;;6.70;3.50;;;22.80;46.80;;;;;;5036728;28;20416;-46
2022/05/09 11:05:37;;;;;;;7.68;3.40;;;22.90;46.40;;;;;;5042171;28;20049;-47
2022/05/09 11:08:12;;;;;;;8.30;3.38;;;22.90;45.90;;;;;;5039231;28;20049;-44
2022/05/09 11:10:48;;;;;;;7.40;3.58;;;23.00;46.00;;;;;;5041809;28;20049;-44
2022/05/09 11:13:27;;;;;;;7.50;3.17;;;23.00;45.70;;;;;;5035102;28;20052;-44
2022/05/09 11:16:04;;;;;;;4.18;2.80;;;23.10;45.30;;;;;;5039884;28;20052;-44
2022/05/09 11:19:13;;;;;;;8.55;3.40;;;23.10;45.60;;;;;;5039020;28;20091;-44
2022/05/09 11:21:48;;;;;;;3.85;2.83;;;23.10;44.50;;;;;;5034654;28;20397;-44
2022/05/09 11:24:36;;;;;;;5.60;3.42;;;23.10;45.50;;;;;;5040619;28;20048;-44
2022/05/09 11:27:14;;;;;;;4.00;2.78;;;23.20;45.10;;;;;;5040948;28;20511;-44
2022/05/09 11:29:56;;;;;;;6.20;3.10;;;23.20;45.10;;;;;;5038352;28;20060;-45
2022/05/09 11:32:37;;;;;;;7.40;3.20;;;23.30;45.00;;;;;;5036524;28;20052;-44
2022/05/09 11:35:31;;;;;;;4.60;2.65;;;23.40;43.80;;;;;;5036536;28;20049;-44
2022/05/09 11:38:28;;;;;;;6.32;3.25;;;23.40;43.30;;;;;;5041714;28;20496;-44
2022/05/09 11:41:06;;;;;;;7.30;3.60;;;23.50;43.60;;;;;;5039178;28;20056;-47
2022/05/09 11:43:50;;;;;;;5.00;3.03;;;23.50;43.60;;;;;;5036354;28;20048;-44
2022/05/09 11:46:38;;;;;;;6.27;2.80;;;23.60;43.60;;;;;;5041313;28;20508;-46
2022/05/09 11:49:26;;;;;;;4.78;3.00;;;23.70;44.60;;;;;;5029941;28;20053;-45
2022/05/09 11:51:56;;;;;;;6.72;3.20;;;23.70;43.30;;;;;;5030397;28;20056;-45
2022/05/09 11:54:29;;;;;;;5.13;3.08;;;23.80;43.90;;;;;;5035307;28;20053;-44
2022/05/09 11:57:01;;;;;;;5.22;2.97;;;23.90;43.50;;;;;;5032890;28;20511;-44
2022/05/09 11:59:31;;;;;;;5.10;2.88;;;23.90;43.70;;;;;;5021658;28;20052;-45
2022/05/09 12:02:04;;;;;;;3.85;2.90;;;24.00;42.80;;;;;;5021790;28;20057;-45
2022/05/09 12:04:40;;;;;;;4.53;2.60;;;23.90;43.10;;;;;;5023210;28;20064;-44
2022/05/09 12:07:48;;;;;;;4.38;2.90;;;24.00;41.90;;;;;;5037522;28;20049;-44
2022/05/09 12:10:28;;;;;;;3.65;2.70;;;24.00;40.90;;;;;;5037112;28;20052;-46
2022/05/09 12:12:57;;;;;;;3.10;2.63;;;24.10;40.30;;;;;;5032570;28;20052;-44
2022/05/09 12:15:58;;;;;;;4.50;2.90;;;24.10;41.20;;;;;;5032621;28;20068;-45
2022/05/09 12:18:30;;;;;;;4.13;3.13;;;24.20;41.30;;;;;;5030143;28;20051;-44
2022/05/09 12:21:17;;;;;;;5.80;3.00;;;24.20;41.30;;;;;;5041968;28;20084;-45
2022/05/09 12:24:08;;;;;;;2.63;2.42;;;24.20;40.50;;;;;;5036492;28;20056;-44
2022/05/09 12:26:39;;;;;;;5.95;3.00;;;24.20;40.80;;;;;;5041801;28;20053;-44
2022/05/09 12:29:31;;;;;;;6.40;2.60;;;24.30;41.60;;;;;;5039485;28;20053;-45
2022/05/09 12:32:02;;;;;;;5.75;2.35;;;24.30;40.20;;;;;;5023152;28;20069;-46
2022/05/09 12:34:38;;;;;;;3.80;2.13;;;24.40;40.40;;;;;;5039470;28;20049;-45
2022/05/09 12:37:07;;;;;;;4.18;2.40;;;24.40;40.30;;;;;;5032194;28;20060;-44
2022/05/09 12:39:37;;;;;;;4.53;2.60;;;24.40;40.30;;;;;;5038846;28;20516;-45
2022/05/09 12:42:12;;;;;;;3.97;2.50;;;24.40;39.50;;;;;;5034390;28;20059;-44
2022/05/09 12:44:44;;;;;;;3.58;2.42;;;24.40;39.70;;;;;;5040086;28;20049;-44
2022/05/09 12:47:16;;;;;;;4.63;2.65;;;24.40;39.50;;;;;;5039212;28;20056;-44
2022/05/09 12:49:46;;;;;;;4.20;2.50;;;24.40;39.40;;;;;;5040150;28;20053;-44
2022/05/09 12:52:20;;;;;;;5.53;2.13;;;24.50;39.40;;;;;;5032664;28;20059;-46
2022/05/09 12:57:38;;;;;;;3.15;2.20;;;24.50;39.00;;;;;;5037449;28;20053;-44
2022/05/09 13:00:10;;;;;;;3.10;2.28;;;24.50;38.50;;;;;;5038172;28;20045;-51
2022/05/09 13:02:37;;;;;;;2.95;2.10;;;24.50;38.40;;;;;;5041911;28;20049;-44
2022/05/09 13:05:05;;;;;;;5.90;2.60;;;24.50;38.80;;;;;;5044615;28;20053;-44
2022/05/09 13:07:33;;;;;;;4.22;2.50;;;24.60;38.70;;;;;;5044846;28;20057;-44
2022/05/09 13:10:01;;;;;;;5.50;2.47;;;24.60;38.40;;;;;;5039603;28;20037;-48
2022/05/09 13:12:32;;;;;;;3.33;2.50;;;24.60;38.10;;;;;;5038753;28;21322;-48
2022/05/09 13:15:05;;;;;;;3.53;2.17;;;24.60;38.20;;;;;;5043287;28;20494;-44
2022/05/09 13:17:37;;;;;;;5.47;2.42;;;24.60;37.70;;;;;;5043033;28;20424;-45
2022/05/09 13:20:09;;;;;;;4.00;2.28;;;24.60;38.10;;;;;;5044204;28;20049;-48